createdAt,value
2023-08-11T00:01:46.955Z,16.66
2023-08-11T00:03:49.953Z,16.49
2023-08-11T00:05:54.633Z,16.54
2023-08-11T00:07:58.189Z,16.42
2023-08-11T00:10:00.889Z,16.33
2023-08-11T00:12:05.553Z,16.35
2023-08-11T00:14:08.303Z,16.24
2023-08-11T00:16:11.312Z,16.47
2023-08-11T00:18:14.089Z,16.40
2023-08-11T00:20:16.796Z,16.22
2023-08-11T00:22:19.422Z,16.12
2023-08-11T00:24:21.361Z,16.20
2023-08-11T00:26:24.076Z,16.07
2023-08-11T00:28:28.401Z,16.11
2023-08-11T00:30:30.362Z,16.05
2023-08-11T00:32:33.249Z,16.18
2023-08-11T00:34:36.509Z,16.00
2023-08-11T00:36:39.270Z,16.05
2023-08-11T00:38:42.025Z,15.97
2023-08-11T00:40:45.107Z,16.01
2023-08-11T00:42:50.567Z,15.98
2023-08-11T00:44:54.715Z,15.95
2023-08-11T00:46:57.974Z,16.12
2023-08-11T00:49:01.716Z,16.06
2023-08-11T00:51:06.608Z,16.00
2023-08-11T00:53:11.128Z,15.89
2023-08-11T00:55:14.912Z,15.85
2023-08-11T00:57:17.947Z,15.78
2023-08-11T00:59:20.690Z,15.88
2023-08-11T01:01:25.645Z,15.95
2023-08-11T01:03:28.498Z,16.03
2023-08-11T01:05:36.526Z,16.08
2023-08-11T01:07:43.932Z,16.06
2023-08-11T01:09:53.706Z,16.11
2023-08-11T01:12:07.659Z,15.99
2023-08-11T01:14:19.434Z,16.03
2023-08-11T01:16:25.830Z,16.02
2023-08-11T01:18:29.438Z,16.02
2023-08-11T01:20:32.455Z,16.06
2023-08-11T01:22:38.018Z,15.98
2023-08-11T01:24:43.588Z,15.82
2023-08-11T01:26:47.602Z,15.88
2023-08-11T01:28:54.681Z,15.82
2023-08-11T01:30:57.357Z,15.80
2023-08-11T01:33:00.166Z,15.73
2023-08-11T01:35:03.494Z,15.71
2023-08-11T01:37:05.793Z,15.59
2023-08-11T01:39:10.717Z,15.57
2023-08-11T01:41:15.650Z,15.59
2023-08-11T01:43:19.440Z,15.61
2023-08-11T01:45:23.306Z,15.63
2023-08-11T01:47:25.783Z,15.60
2023-08-11T01:49:29.335Z,15.64
2023-08-11T01:51:32.373Z,15.57
2023-08-11T01:53:35.450Z,15.60
2023-08-11T01:55:38.499Z,15.47
2023-08-11T01:57:51.995Z,15.45
2023-08-11T02:00:01.105Z,15.34
2023-08-11T02:02:04.206Z,15.19
2023-08-11T02:04:07.497Z,15.20
2023-08-11T02:06:09.497Z,15.31
2023-08-11T02:08:15.604Z,15.33
2023-08-11T02:10:18.257Z,15.37
2023-08-11T02:12:20.986Z,15.25
2023-08-11T02:14:25.081Z,15.33
2023-08-11T02:16:26.908Z,15.31
2023-08-11T02:18:29.826Z,15.32
2023-08-11T02:20:34.108Z,15.29
2023-08-11T02:22:36.937Z,15.22
2023-08-11T02:24:39.712Z,15.11
2023-08-11T02:26:42.449Z,15.14
2023-08-11T02:28:45.246Z,15.11
2023-08-11T02:30:49.348Z,15.14
2023-08-11T02:32:52.245Z,15.12
2023-08-11T02:34:55.841Z,14.98
2023-08-11T02:36:58.540Z,15.05
2023-08-11T02:39:01.436Z,15.00
2023-08-11T02:41:05.470Z,14.86
2023-08-11T02:43:08.330Z,14.78
2023-08-11T02:45:12.434Z,14.82
2023-08-11T02:47:16.665Z,14.82
2023-08-11T02:49:19.437Z,14.87
2023-08-11T02:51:21.302Z,14.91
2023-08-11T02:53:24.804Z,14.89
2023-08-11T02:55:27.524Z,14.88
2023-08-11T02:57:30.305Z,14.90
2023-08-11T02:59:33.237Z,14.85
2023-08-11T03:01:36.043Z,14.69
2023-08-11T03:03:40.911Z,14.73
2023-08-11T03:05:44.862Z,14.70
2023-08-11T03:07:47.599Z,14.70
2023-08-11T03:09:50.322Z,14.60
2023-08-11T03:11:53.103Z,14.61
2023-08-11T03:13:55.305Z,14.59
2023-08-11T03:15:59.976Z,14.60
2023-08-11T03:18:02.901Z,14.44
2023-08-11T03:20:13.638Z,14.46
2023-08-11T03:22:18.709Z,14.52
2023-08-11T03:24:21.554Z,14.52
2023-08-11T03:26:24.289Z,14.47
2023-08-11T03:28:27.002Z,14.56
2023-08-11T03:30:29.853Z,14.58
2023-08-11T03:32:32.599Z,14.44
2023-08-11T03:34:35.466Z,14.42
2023-08-11T03:36:39.446Z,14.55
2023-08-11T03:38:42.193Z,14.53
2023-08-11T03:40:44.928Z,14.52
2023-08-11T03:42:47.659Z,14.45
2023-08-11T03:44:50.520Z,14.41
2023-08-11T03:46:53.260Z,14.34
2023-08-11T03:48:55.973Z,14.39
2023-08-11T03:51:01.057Z,14.24
2023-08-11T03:53:05.380Z,14.35
2023-08-11T03:55:10.664Z,14.42
2023-08-11T03:57:14.136Z,14.41
2023-08-11T03:59:16.823Z,14.35
2023-08-11T04:01:19.547Z,14.50
2023-08-11T04:03:23.351Z,14.52
2023-08-11T04:05:26.348Z,14.57
2023-08-11T04:07:29.470Z,14.49
2023-08-11T04:09:35.276Z,14.50
2023-08-11T04:11:38.064Z,14.56
2023-08-11T04:13:40.880Z,14.46
2023-08-11T04:15:43.763Z,14.42
2023-08-11T04:17:46.453Z,14.58
2023-08-11T04:19:49.708Z,14.43
2023-08-11T04:21:52.449Z,14.51
2023-08-11T04:23:57.397Z,14.55
2023-08-11T04:26:03.213Z,14.54
2023-08-11T04:28:05.199Z,14.51
2023-08-11T04:30:09.549Z,14.50
2023-08-11T04:32:12.427Z,14.53
2023-08-11T04:34:16.578Z,14.46
2023-08-11T04:36:19.219Z,14.54
2023-08-11T04:38:21.240Z,14.74
2023-08-11T04:40:24.473Z,14.65
2023-08-11T04:42:28.781Z,14.76
2023-08-11T04:44:31.502Z,14.84
2023-08-11T04:46:34.249Z,14.75
2023-08-11T04:48:36.969Z,14.76
2023-08-11T04:50:39.739Z,14.86
2023-08-11T04:52:43.894Z,14.75
2023-08-11T04:54:48.856Z,14.94
2023-08-11T04:56:51.790Z,15.09
2023-08-11T04:58:56.167Z,15.19
2023-08-11T05:00:58.840Z,15.24
2023-08-11T05:03:01.560Z,15.09
2023-08-11T05:05:06.700Z,15.05
2023-08-11T05:07:10.278Z,14.93
2023-08-11T05:09:14.878Z,14.97
2023-08-11T05:11:19.418Z,15.05
2023-08-11T05:13:22.852Z,15.18
2023-08-11T05:15:27.053Z,15.13
2023-08-11T05:17:29.946Z,15.14
2023-08-11T05:19:32.829Z,15.00
2023-08-11T05:21:37.436Z,15.05
2023-08-11T05:23:40.158Z,15.00
2023-08-11T05:25:42.909Z,15.03
2023-08-11T05:27:46.363Z,15.32
2023-08-11T05:29:50.614Z,15.28
2023-08-11T05:31:54.778Z,15.34
2023-08-11T05:33:58.129Z,15.38
2023-08-11T05:36:01.011Z,15.35
2023-08-11T05:38:03.876Z,15.29
2023-08-11T05:40:09.708Z,15.53
2023-08-11T05:42:12.619Z,15.42
2023-08-11T05:44:14.428Z,15.77
2023-08-11T05:46:17.171Z,15.72
2023-08-11T05:48:21.273Z,15.74
2023-08-11T05:50:24.064Z,16.02
2023-08-11T05:52:26.807Z,16.02
2023-08-11T05:54:29.496Z,16.28
2023-08-11T05:56:32.177Z,16.25
2023-08-11T05:58:35.008Z,16.43
2023-08-11T06:00:37.743Z,16.38
2023-08-11T06:02:40.646Z,16.46
2023-08-11T06:04:45.843Z,16.84
2023-08-11T06:06:48.517Z,16.93
2023-08-11T06:08:51.336Z,17.01
2023-08-11T06:10:55.649Z,17.22
2023-08-11T06:12:58.458Z,17.31
2023-08-11T06:15:01.108Z,17.27
2023-08-11T06:17:04.272Z,17.73
2023-08-11T06:19:07.420Z,17.95
2023-08-11T06:21:12.182Z,18.09
2023-08-11T06:23:14.959Z,18.25
2023-08-11T06:25:17.768Z,18.43
2023-08-11T06:27:20.463Z,18.71
2023-08-11T06:29:23.162Z,18.91
2023-08-11T06:31:26.062Z,19.14
2023-08-11T06:33:28.823Z,19.34
2023-08-11T06:35:30.858Z,19.42
2023-08-11T06:37:34.925Z,19.67
2023-08-11T06:39:37.839Z,19.51
2023-08-11T06:41:40.619Z,19.80
2023-08-11T06:43:43.758Z,20.16
2023-08-11T06:45:46.854Z,20.37
2023-08-11T06:47:49.729Z,20.57
2023-08-11T06:49:52.442Z,20.39
2023-08-11T06:51:55.134Z,21.26
2023-08-11T06:53:59.336Z,20.58
2023-08-11T06:56:02.080Z,20.69
2023-08-11T06:58:04.370Z,20.56
2023-08-11T07:00:08.459Z,20.47
2023-08-11T07:02:11.345Z,20.68
2023-08-11T07:04:14.098Z,20.50
2023-08-11T07:06:17.039Z,20.85
2023-08-11T07:08:19.832Z,20.77
2023-08-11T07:10:23.909Z,21.40
2023-08-11T07:12:25.673Z,21.34
2023-08-11T07:14:28.485Z,22.20
2023-08-11T07:16:31.311Z,21.83
2023-08-11T07:18:33.102Z,22.54
2023-08-11T07:20:35.811Z,22.00
2023-08-11T07:22:38.491Z,22.45
2023-08-11T07:24:40.245Z,22.82
2023-08-11T07:26:44.352Z,23.05
2023-08-11T07:28:47.674Z,24.12
2023-08-11T07:30:50.411Z,23.73
2023-08-11T07:32:55.370Z,23.58
2023-08-11T07:34:58.531Z,23.94
2023-08-11T07:37:01.217Z,24.98
2023-08-11T07:39:20.740Z,24.93
2023-08-11T07:41:25.311Z,24.77
2023-08-11T07:43:29.410Z,25.15
2023-08-11T07:45:34.106Z,25.10
2023-08-11T07:47:36.939Z,25.88
2023-08-11T07:49:39.736Z,25.35
2023-08-11T07:51:42.761Z,25.72
2023-08-11T07:53:46.437Z,25.49
2023-08-11T07:55:49.237Z,24.89
2023-08-11T07:57:51.930Z,26.39
2023-08-11T07:59:56.010Z,26.97
2023-08-11T08:01:57.762Z,27.53
2023-08-11T08:04:00.567Z,27.98
2023-08-11T08:06:06.110Z,28.67
2023-08-11T08:08:09.105Z,29.58
2023-08-11T08:10:14.968Z,28.93
2023-08-11T08:12:17.980Z,28.94
2023-08-11T08:14:21.012Z,28.35
2023-08-11T08:16:25.146Z,27.93
2023-08-11T08:18:27.855Z,27.71
2023-08-11T08:20:32.345Z,26.82
2023-08-11T08:22:35.424Z,27.51
2023-08-11T08:24:38.173Z,27.48
2023-08-11T08:26:40.911Z,26.80
2023-08-11T08:28:43.547Z,27.45
2023-08-11T08:30:46.328Z,27.65
2023-08-11T08:32:50.447Z,27.85
2023-08-11T08:34:53.487Z,25.33
2023-08-11T08:36:56.274Z,26.83
2023-08-11T08:38:59.057Z,26.01
2023-08-11T08:41:02.264Z,26.86
2023-08-11T08:43:05.815Z,26.48
2023-08-11T08:45:10.224Z,27.17
2023-08-11T08:47:14.863Z,28.05
2023-08-11T08:49:24.354Z,26.60
2023-08-11T08:51:27.707Z,27.34
2023-08-11T08:53:30.629Z,28.22
2023-08-11T08:55:33.541Z,28.84
2023-08-11T08:57:36.249Z,28.90
2023-08-11T08:59:39.761Z,28.84
2023-08-11T09:01:43.230Z,30.37
2023-08-11T09:03:47.783Z,30.80
2023-08-11T09:05:52.304Z,31.81
2023-08-11T09:07:55.077Z,29.20
2023-08-11T09:09:57.792Z,28.38
2023-08-11T09:12:02.229Z,28.38
2023-08-11T09:14:05.784Z,31.06
2023-08-11T09:16:08.545Z,31.03
2023-08-11T09:18:16.964Z,30.17
2023-08-11T09:20:20.740Z,31.67
2023-08-11T09:22:26.239Z,31.70
2023-08-11T09:24:31.437Z,32.18
2023-08-11T09:26:34.108Z,30.69
2023-08-11T09:28:36.961Z,30.69
2023-08-11T09:30:40.143Z,31.09
2023-08-11T09:32:42.895Z,29.60
2023-08-11T09:34:46.099Z,30.97
2023-08-11T09:36:50.805Z,31.80
2023-08-11T09:38:54.862Z,31.67
2023-08-11T09:41:01.888Z,31.55
2023-08-11T09:43:04.863Z,32.00
2023-08-11T09:45:09.824Z,32.41
2023-08-11T09:47:21.219Z,33.37
2023-08-11T09:49:25.125Z,32.25
2023-08-11T09:51:27.012Z,31.47
2023-08-11T09:53:31.222Z,31.58
2023-08-11T09:55:39.364Z,31.31
2023-08-11T09:57:43.305Z,31.79
2023-08-11T09:59:47.416Z,31.27
2023-08-11T10:01:53.392Z,32.12
2023-08-11T10:03:59.279Z,29.39
2023-08-11T10:06:02.966Z,32.56
2023-08-11T10:08:06.504Z,32.87
2023-08-11T10:10:13.219Z,33.31
2023-08-11T10:12:18.269Z,32.01
2023-08-11T10:14:22.921Z,33.48
2023-08-11T10:16:28.895Z,32.00
2023-08-11T10:18:33.595Z,32.15
2023-08-11T10:20:36.566Z,31.31
2023-08-11T10:22:39.732Z,30.56
2023-08-11T10:24:44.605Z,29.38
2023-08-11T10:26:47.665Z,31.52
2023-08-11T10:28:52.441Z,32.56
2023-08-11T10:30:58.704Z,31.70
2023-08-11T10:33:06.787Z,31.59
2023-08-11T10:35:18.883Z,31.22
2023-08-11T10:37:25.961Z,30.59
2023-08-11T10:39:28.786Z,29.48
2023-08-11T10:41:31.947Z,31.24
2023-08-11T10:43:36.414Z,30.76
2023-08-11T10:45:42.563Z,30.77
2023-08-11T10:47:52.917Z,29.64
2023-08-11T10:49:56.820Z,30.61
2023-08-11T10:52:00.987Z,29.75
2023-08-11T10:54:10.295Z,29.65
2023-08-11T10:56:14.577Z,28.90
2023-08-11T10:58:21.632Z,29.48
2023-08-11T11:00:24.311Z,29.50
2023-08-11T11:02:28.403Z,29.90
2023-08-11T11:04:33.201Z,28.94
2023-08-11T11:06:35.991Z,29.66
2023-08-11T11:08:38.710Z,29.70
2023-08-11T11:10:50.044Z,29.36
2023-08-11T11:12:53.690Z,29.05
2023-08-11T11:14:56.558Z,29.01
2023-08-11T11:17:00.444Z,28.52
2023-08-11T11:19:06.986Z,28.49
2023-08-11T11:21:09.814Z,28.70
2023-08-11T11:23:12.525Z,28.64
2023-08-11T11:25:15.261Z,28.56
2023-08-11T11:27:18.003Z,28.49
2023-08-11T11:29:24.629Z,28.42
2023-08-11T11:31:29.190Z,28.48
2023-08-11T11:33:31.554Z,29.03
2023-08-11T11:35:35.652Z,29.12
2023-08-11T11:37:38.730Z,28.65
2023-08-11T11:39:40.899Z,28.17
2023-08-11T11:41:43.583Z,28.78
2023-08-11T11:43:48.442Z,28.93
2023-08-11T11:45:53.517Z,29.05
2023-08-11T11:47:56.650Z,28.31
2023-08-11T11:50:00.409Z,29.11
2023-08-11T11:52:04.921Z,29.29
2023-08-11T11:54:07.656Z,28.73
2023-08-11T11:56:14.162Z,28.88
2023-08-11T11:58:17.129Z,28.94
2023-08-11T12:00:21.640Z,28.47
2023-08-11T12:02:24.379Z,28.86
2023-08-11T12:04:27.405Z,29.54
2023-08-11T12:06:31.148Z,30.53
2023-08-11T12:08:35.909Z,29.71
2023-08-11T12:10:38.605Z,28.73
2023-08-11T12:12:41.321Z,29.64
2023-08-11T12:14:44.050Z,28.94
2023-08-11T12:16:46.798Z,29.35
2023-08-11T12:18:49.723Z,29.28
2023-08-11T12:20:52.589Z,29.40
2023-08-11T12:22:55.336Z,29.41
2023-08-11T12:24:59.392Z,29.26
2023-08-11T12:27:02.243Z,29.06
2023-08-11T12:29:06.367Z,29.75
2023-08-11T12:31:11.652Z,29.33
2023-08-11T12:33:17.266Z,29.15
2023-08-11T12:35:20.029Z,29.35
2023-08-11T12:37:22.749Z,29.35
2023-08-11T12:39:25.575Z,29.72
2023-08-11T12:41:29.691Z,29.69
2023-08-11T12:43:32.415Z,29.82
2023-08-11T12:45:35.091Z,30.47
2023-08-11T12:47:37.833Z,30.46
2023-08-11T12:49:40.564Z,29.29
2023-08-11T12:51:43.279Z,30.32
2023-08-11T12:53:46.090Z,30.06
2023-08-11T12:55:48.850Z,29.70
2023-08-11T12:57:52.228Z,29.58
2023-08-11T12:59:54.885Z,29.57
2023-08-11T13:01:57.674Z,29.63
2023-08-11T13:04:02.633Z,30.05
2023-08-11T13:06:05.409Z,29.20
2023-08-11T13:08:08.532Z,29.94
2023-08-11T13:10:11.815Z,30.55
2023-08-11T13:12:14.501Z,31.14
2023-08-11T13:14:18.540Z,30.80
2023-08-11T13:16:21.332Z,29.95
2023-08-11T13:18:24.085Z,29.91
2023-08-11T13:20:26.952Z,29.40
2023-08-11T13:22:29.666Z,29.59
2023-08-11T13:24:33.081Z,30.17
2023-08-11T13:26:35.771Z,29.84
2023-08-11T13:28:38.486Z,29.76
2023-08-11T13:30:43.664Z,29.98
2023-08-11T13:32:46.518Z,29.75
2023-08-11T13:34:49.349Z,30.08
2023-08-11T13:36:52.203Z,29.09
2023-08-11T13:38:53.906Z,29.68
2023-08-11T13:40:57.497Z,29.56
2023-08-11T13:43:00.245Z,29.33
2023-08-11T13:45:02.964Z,29.44
2023-08-11T13:47:07.282Z,29.40
2023-08-11T13:49:10.766Z,29.27
2023-08-11T13:51:13.447Z,29.89
2023-08-11T13:53:16.541Z,29.80
2023-08-11T13:55:19.450Z,29.93
2023-08-11T13:57:22.110Z,29.62
2023-08-11T13:59:24.868Z,29.74
2023-08-11T14:01:27.592Z,29.25
2023-08-11T14:03:31.651Z,29.45
2023-08-11T14:05:35.700Z,29.73
2023-08-11T14:07:38.416Z,29.61
2023-08-11T14:09:41.169Z,29.77
2023-08-11T14:11:43.927Z,29.83
2023-08-11T14:13:46.633Z,30.13
2023-08-11T14:15:49.481Z,29.42
2023-08-11T14:17:52.258Z,29.58
2023-08-11T14:19:56.296Z,29.90
2023-08-11T14:21:58.969Z,29.03
2023-08-11T14:24:01.647Z,29.21
2023-08-11T14:26:04.422Z,29.82
2023-08-11T14:28:07.310Z,29.63
2023-08-11T14:30:10.850Z,29.97
2023-08-11T14:32:23.047Z,29.43
2023-08-11T14:34:27.851Z,29.29
2023-08-11T14:36:32.124Z,29.99
2023-08-11T14:38:34.806Z,29.72
2023-08-11T14:40:37.507Z,29.64
2023-08-11T14:42:41.343Z,29.77
2023-08-11T14:44:44.438Z,29.66
2023-08-11T14:46:47.186Z,29.56
2023-08-11T14:48:49.914Z,29.39
2023-08-11T14:50:52.940Z,29.03
2023-08-11T14:52:57.045Z,29.10
2023-08-11T14:54:59.771Z,29.58
2023-08-11T14:57:02.540Z,29.36
2023-08-11T14:59:05.422Z,29.52
2023-08-11T15:01:08.321Z,29.46
2023-08-11T15:03:11.134Z,29.54
2023-08-11T15:05:14.020Z,29.18
2023-08-11T15:07:16.922Z,29.39
2023-08-11T15:09:21.033Z,29.25
2023-08-11T15:11:23.781Z,29.22
2023-08-11T15:13:26.521Z,29.19
2023-08-11T15:15:29.393Z,29.45
2023-08-11T15:17:32.158Z,29.58
2023-08-11T15:19:34.879Z,29.29
2023-08-11T15:21:37.583Z,29.44
2023-08-11T15:23:40.572Z,29.37
2023-08-11T15:25:44.644Z,29.45
2023-08-11T15:27:47.349Z,29.29
2023-08-11T15:29:50.033Z,29.32
2023-08-11T15:31:54.606Z,29.42
2023-08-11T15:33:57.675Z,29.34
2023-08-11T15:36:00.468Z,29.43
2023-08-11T15:38:03.124Z,29.71
2023-08-11T15:40:07.149Z,29.50
2023-08-11T15:42:11.474Z,29.43
2023-08-11T15:44:14.386Z,29.32
2023-08-11T15:46:17.166Z,29.14
2023-08-11T15:48:19.923Z,29.36
2023-08-11T15:50:22.681Z,29.39
2023-08-11T15:52:25.456Z,29.39
2023-08-11T15:54:27.170Z,29.45
2023-08-11T15:56:29.912Z,29.23
2023-08-11T15:58:33.933Z,29.35
2023-08-11T16:00:38.629Z,29.37
2023-08-11T16:02:40.718Z,29.38
2023-08-11T16:04:43.531Z,29.36
2023-08-11T16:06:46.288Z,29.37
2023-08-11T16:08:48.986Z,29.38
2023-08-11T16:10:51.681Z,29.12
2023-08-11T16:12:54.507Z,29.27
2023-08-11T16:14:58.659Z,29.24
2023-08-11T16:17:01.401Z,29.16
2023-08-11T16:19:04.135Z,28.98
2023-08-11T16:21:06.905Z,29.06
2023-08-11T16:23:09.640Z,29.03
2023-08-11T16:25:12.424Z,29.14
2023-08-11T16:27:15.099Z,28.97
2023-08-11T16:29:17.861Z,28.83
2023-08-11T16:31:21.980Z,28.83
2023-08-11T16:33:24.705Z,28.72
2023-08-11T16:35:27.545Z,28.62
2023-08-11T16:37:31.064Z,28.72
2023-08-11T16:39:33.819Z,28.82
2023-08-11T16:41:36.539Z,28.71
2023-08-11T16:43:39.191Z,28.89
2023-08-11T16:45:40.916Z,28.78
2023-08-11T16:47:44.968Z,28.95
2023-08-11T16:49:47.639Z,28.76
2023-08-11T16:51:50.368Z,28.72
2023-08-11T16:53:53.049Z,28.68
2023-08-11T16:55:55.761Z,28.60
2023-08-11T16:57:58.486Z,28.52
2023-08-11T17:00:01.264Z,28.68
2023-08-11T17:02:03.951Z,28.46
2023-08-11T17:04:08.485Z,28.41
2023-08-11T17:06:14.114Z,28.27
2023-08-11T17:08:16.802Z,28.29
2023-08-11T17:10:19.555Z,28.27
2023-08-11T17:12:22.315Z,28.24
2023-08-11T17:14:25.088Z,28.22
2023-08-11T17:16:30.053Z,28.14
2023-08-11T17:18:31.875Z,28.10
2023-08-11T17:20:37.034Z,28.03
2023-08-11T17:22:39.698Z,28.01
2023-08-11T17:24:42.644Z,27.96
2023-08-11T17:26:45.368Z,27.93
2023-08-11T17:28:48.964Z,27.86
2023-08-11T17:30:50.744Z,27.93
2023-08-11T17:32:53.424Z,27.79
2023-08-11T17:34:58.606Z,27.67
2023-08-11T17:37:03.355Z,27.80
2023-08-11T17:39:07.337Z,27.67
2023-08-11T17:41:10.604Z,27.74
2023-08-11T17:43:13.304Z,27.50
2023-08-11T17:45:16.036Z,27.58
2023-08-11T17:47:18.733Z,27.41
2023-08-11T17:49:21.393Z,27.45
2023-08-11T17:51:24.314Z,27.36
2023-08-11T17:53:28.379Z,27.20
2023-08-11T17:55:31.134Z,27.17
2023-08-11T17:57:33.860Z,27.00
2023-08-11T17:59:36.768Z,26.92
2023-08-11T18:01:39.896Z,26.71
2023-08-11T18:03:41.649Z,26.83
2023-08-11T18:05:44.709Z,26.74
2023-08-11T18:07:47.488Z,26.66
2023-08-11T18:09:52.113Z,26.62
2023-08-11T18:11:54.804Z,26.67
2023-08-11T18:13:57.862Z,26.61
2023-08-11T18:16:00.557Z,26.52
2023-08-11T18:18:03.276Z,26.55
2023-08-11T18:20:07.586Z,26.43
2023-08-11T18:22:10.464Z,26.37
2023-08-11T18:24:13.269Z,26.30
2023-08-11T18:26:18.063Z,26.12
2023-08-11T18:28:20.808Z,26.10
2023-08-11T18:30:23.674Z,26.01
2023-08-11T18:32:26.430Z,25.92
2023-08-11T18:34:29.154Z,26.16
2023-08-11T18:36:31.859Z,25.95
2023-08-11T18:38:33.691Z,25.75
2023-08-11T18:40:36.428Z,25.68
2023-08-11T18:42:40.440Z,25.55
2023-08-11T18:44:43.317Z,25.42
2023-08-11T18:46:46.115Z,25.37
2023-08-11T18:48:49.796Z,25.32
2023-08-11T18:50:53.176Z,25.53
2023-08-11T18:52:55.895Z,25.35
2023-08-11T18:54:58.588Z,25.29
2023-08-11T18:57:01.294Z,25.32
2023-08-11T18:59:05.361Z,25.10
2023-08-11T19:01:08.145Z,25.14
2023-08-11T19:03:10.977Z,25.17
2023-08-11T19:05:13.790Z,25.04
2023-08-11T19:07:15.508Z,24.97
2023-08-11T19:09:18.245Z,25.07
2023-08-11T19:11:23.574Z,24.97
2023-08-11T19:13:26.292Z,24.95
2023-08-11T19:15:30.579Z,24.85
2023-08-11T19:17:33.273Z,24.85
2023-08-11T19:19:36.016Z,24.91
2023-08-11T19:21:38.825Z,24.80
2023-08-11T19:23:41.502Z,24.78
2023-08-11T19:25:44.394Z,24.71
2023-08-11T19:27:47.057Z,24.72
2023-08-11T19:29:50.482Z,24.76
2023-08-11T19:31:54.553Z,24.77
2023-08-11T19:33:57.293Z,24.72
2023-08-11T19:36:00.793Z,24.60
2023-08-11T19:38:04.821Z,24.63
2023-08-11T19:40:08.689Z,24.50
2023-08-11T19:42:11.665Z,24.54
2023-08-11T19:44:15.980Z,24.59
2023-08-11T19:46:18.663Z,24.50
2023-08-11T19:48:22.775Z,24.50
2023-08-11T19:50:25.516Z,24.48
2023-08-11T19:52:28.253Z,24.51
2023-08-11T19:54:30.931Z,24.43
2023-08-11T19:56:33.713Z,24.40
2023-08-11T19:58:36.382Z,24.38
2023-08-11T20:00:39.091Z,24.49
2023-08-11T20:02:42.074Z,24.43
2023-08-11T20:04:46.181Z,24.34
2023-08-11T20:06:49.028Z,24.39
2023-08-11T20:08:51.840Z,24.30
2023-08-11T20:10:54.905Z,24.24
2023-08-11T20:12:57.585Z,24.21
2023-08-11T20:15:00.250Z,24.24
2023-08-11T20:17:04.589Z,24.07
2023-08-11T20:19:07.452Z,24.07
2023-08-11T20:21:11.532Z,24.23
2023-08-11T20:23:14.297Z,24.14
2023-08-11T20:25:17.126Z,24.10
2023-08-11T20:27:22.744Z,24.13
2023-08-11T20:29:26.124Z,24.15
2023-08-11T20:31:32.589Z,24.07
2023-08-11T20:33:35.579Z,24.08
2023-08-11T20:35:38.276Z,23.96
2023-08-11T20:37:42.367Z,23.89
2023-08-11T20:39:45.047Z,23.89
2023-08-11T20:41:47.766Z,23.92
2023-08-11T20:43:49.772Z,23.91
2023-08-11T20:45:53.075Z,23.80
2023-08-11T20:47:55.976Z,23.79
2023-08-11T20:49:58.914Z,23.82
2023-08-11T20:52:01.914Z,23.91
2023-08-11T20:54:06.453Z,23.96
2023-08-11T20:56:10.722Z,23.81
2023-08-11T20:58:12.492Z,23.80
2023-08-11T21:00:16.341Z,23.64
2023-08-11T21:02:19.173Z,23.60
2023-08-11T21:04:22.050Z,23.46
2023-08-11T21:06:24.873Z,23.52
2023-08-11T21:08:27.641Z,23.55
2023-08-11T21:10:31.728Z,23.50
2023-08-11T21:12:34.617Z,23.40
2023-08-11T21:14:37.370Z,23.32
2023-08-11T21:16:40.824Z,23.18
2023-08-11T21:18:43.766Z,23.15
2023-08-11T21:20:46.623Z,23.06
2023-08-11T21:22:49.304Z,23.18
2023-08-11T21:24:52.085Z,23.17
2023-08-11T21:26:56.249Z,23.01
2023-08-11T21:28:59.023Z,23.18
2023-08-11T21:31:16.947Z,23.23
2023-08-11T21:33:21.134Z,23.31
2023-08-11T21:37:26.291Z,22.91
2023-08-11T21:39:29.061Z,23.07
2023-08-11T21:41:32.524Z,23.12
2023-08-11T21:43:36.597Z,23.06
2023-08-11T21:45:39.952Z,23.05
2023-08-11T21:47:42.708Z,22.92
2023-08-11T21:49:45.471Z,22.91
2023-08-11T21:51:48.132Z,22.92
2023-08-11T21:53:50.950Z,22.93
2023-08-11T21:55:53.667Z,22.63
2023-08-11T21:57:58.102Z,22.68
2023-08-11T22:00:02.510Z,22.99
2023-08-11T22:02:04.508Z,22.79
2023-08-11T22:04:07.740Z,22.95
2023-08-11T22:06:13.722Z,23.01
2023-08-11T22:08:16.426Z,22.84
2023-08-11T22:10:19.247Z,22.50
2023-08-11T22:12:21.919Z,22.93
2023-08-11T22:14:24.686Z,22.86
2023-08-11T22:16:27.878Z,22.77
2023-08-11T22:18:30.629Z,22.69
2023-08-11T22:20:34.312Z,22.76
2023-08-11T22:22:36.985Z,22.79
2023-08-11T22:24:41.522Z,22.59
2023-08-11T22:26:43.715Z,22.57
2023-08-11T22:28:46.467Z,22.87
2023-08-11T22:30:51.184Z,23.16
2023-08-11T22:32:55.357Z,23.11
2023-08-11T22:34:58.191Z,22.73
2023-08-11T22:37:00.889Z,22.74
2023-08-11T22:39:04.355Z,22.94
2023-08-11T22:41:07.059Z,22.78
2023-08-11T22:43:09.730Z,22.82
2023-08-11T22:45:11.503Z,22.68
2023-08-11T22:47:14.526Z,22.55
2023-08-11T22:49:18.675Z,22.44
2023-08-11T22:51:21.713Z,22.57
2023-08-11T22:53:23.502Z,22.54
2023-08-11T22:55:26.230Z,22.51
2023-08-11T22:57:28.876Z,22.42
2023-08-11T22:59:31.580Z,22.15
2023-08-11T23:01:34.333Z,22.22
2023-08-11T23:03:37.042Z,22.11
2023-08-11T23:05:41.087Z,22.17
2023-08-11T23:07:43.761Z,22.06
2023-08-11T23:09:46.775Z,22.15
2023-08-11T23:11:49.489Z,21.99
2023-08-11T23:13:52.162Z,22.08
2023-08-11T23:15:55.099Z,22.03
2023-08-11T23:17:58.688Z,21.98
2023-08-11T23:20:01.897Z,21.82
2023-08-11T23:22:06.046Z,21.66
2023-08-11T23:24:09.942Z,21.69
2023-08-11T23:26:11.701Z,21.66
2023-08-11T23:28:14.424Z,21.56
2023-08-11T23:30:17.196Z,21.52
2023-08-11T23:32:19.974Z,21.53
2023-08-11T23:34:22.983Z,21.67
2023-08-11T23:36:26.734Z,21.55
2023-08-11T23:38:30.824Z,21.62
2023-08-11T23:40:33.674Z,21.52
2023-08-11T23:42:36.446Z,21.56
2023-08-11T23:44:39.149Z,21.59
2023-08-11T23:46:41.822Z,21.38
2023-08-11T23:48:44.732Z,21.42
2023-08-11T23:50:47.522Z,21.48
2023-08-11T23:52:50.854Z,21.51
2023-08-11T23:54:54.030Z,21.42
2023-08-11T23:56:56.818Z,21.34
2023-08-11T23:58:59.492Z,21.35
